createdAt,value
2023-03-29T00:01:56.589Z,75.49
2023-03-29T00:04:23.183Z,75.48
2023-03-29T00:06:50.452Z,75.39
2023-03-29T00:09:18.284Z,75.60
2023-03-29T00:11:44.973Z,75.83
2023-03-29T00:14:11.740Z,75.66
2023-03-29T00:16:38.650Z,75.52
2023-03-29T00:19:05.896Z,75.74
2023-03-29T00:21:32.374Z,75.63
2023-03-29T00:23:59.615Z,75.49
2023-03-29T00:26:26.702Z,75.76
2023-03-29T00:28:53.120Z,75.51
2023-03-29T00:31:19.658Z,75.78
2023-03-29T00:33:46.159Z,75.80
2023-03-29T00:36:13.163Z,75.85
2023-03-29T00:38:40.291Z,75.66
2023-03-29T00:41:08.635Z,75.48
2023-03-29T00:43:55.935Z,75.78
2023-03-29T00:46:23.942Z,75.66
2023-03-29T00:48:53.499Z,75.72
2023-03-29T00:51:24.525Z,75.69
2023-03-29T00:53:56.229Z,75.77
2023-03-29T00:56:29.833Z,75.94
2023-03-29T00:59:05.762Z,75.89
2023-03-29T01:01:54.920Z,75.82
2023-03-29T01:04:31.022Z,75.65
2023-03-29T01:07:03.593Z,75.57
2023-03-29T01:09:33.701Z,75.74
2023-03-29T01:12:04.121Z,75.61
2023-03-29T01:14:38.659Z,75.58
2023-03-29T01:17:05.652Z,75.54
2023-03-29T01:19:39.338Z,75.65
2023-03-29T01:22:38.740Z,75.38
2023-03-29T01:25:17.305Z,75.23
2023-03-29T01:27:47.340Z,75.17
2023-03-29T01:30:19.737Z,74.85
2023-03-29T01:33:14.613Z,74.93
2023-03-29T01:35:49.276Z,74.95
2023-03-29T01:38:26.204Z,74.82
2023-03-29T01:40:52.741Z,74.50
2023-03-29T01:43:37.069Z,74.50
2023-03-29T01:46:23.787Z,74.43
2023-03-29T01:48:56.597Z,74.48
2023-03-29T01:51:29.246Z,74.33
2023-03-29T01:54:04.594Z,74.49
2023-03-29T01:56:36.869Z,74.48
2023-03-29T01:59:07.651Z,74.54
2023-03-29T02:01:40.323Z,74.38
2023-03-29T02:04:13.337Z,74.18
2023-03-29T02:06:41.622Z,74.54
2023-03-29T02:09:08.401Z,74.29
2023-03-29T02:11:36.160Z,74.64
2023-03-29T02:14:03.395Z,74.69
2023-03-29T02:16:35.593Z,75.10
2023-03-29T02:19:02.732Z,75.09
2023-03-29T02:21:51.802Z,75.18
2023-03-29T02:24:21.002Z,75.31
2023-03-29T02:26:48.285Z,75.27
2023-03-29T02:29:15.813Z,75.13
2023-03-29T02:31:53.209Z,75.36
2023-03-29T02:34:28.848Z,75.42
2023-03-29T02:37:01.982Z,75.63
2023-03-29T02:39:31.748Z,75.56
2023-03-29T02:41:59.079Z,75.61
2023-03-29T02:44:29.363Z,75.46
2023-03-29T02:47:00.723Z,75.63
2023-03-29T02:49:27.500Z,75.79
2023-03-29T02:51:57.396Z,76.11
2023-03-29T02:54:29.796Z,76.02
2023-03-29T02:56:58.780Z,76.11
2023-03-29T02:59:25.798Z,76.36
2023-03-29T03:01:52.930Z,76.41
2023-03-29T03:04:22.791Z,76.25
2023-03-29T03:06:49.568Z,76.44
2023-03-29T03:09:16.025Z,76.76
2023-03-29T03:11:42.786Z,76.60
2023-03-29T03:14:09.141Z,76.37
2023-03-29T03:16:36.074Z,76.83
2023-03-29T03:19:03.774Z,76.72
2023-03-29T03:21:30.294Z,76.98
2023-03-29T03:23:56.888Z,76.81
2023-03-29T03:26:24.939Z,77.07
2023-03-29T03:28:51.369Z,76.89
2023-03-29T03:31:17.798Z,77.11
2023-03-29T03:33:44.760Z,77.05
2023-03-29T03:36:11.312Z,77.24
2023-03-29T03:38:38.733Z,77.40
2023-03-29T03:41:07.241Z,77.26
2023-03-29T03:43:34.422Z,77.47
2023-03-29T03:46:01.418Z,77.28
2023-03-29T03:48:28.365Z,77.52
2023-03-29T03:50:58.219Z,77.53
2023-03-29T03:53:26.316Z,77.75
2023-03-29T03:55:55.910Z,77.70
2023-03-29T03:58:22.943Z,77.47
2023-03-29T04:00:50.327Z,77.51
2023-03-29T04:03:17.829Z,77.65
2023-03-29T04:05:45.914Z,77.84
2023-03-29T04:08:13.815Z,77.95
2023-03-29T04:10:40.327Z,77.70
2023-03-29T04:13:07.008Z,77.72
2023-03-29T04:15:38.368Z,77.89
2023-03-29T04:18:06.317Z,77.92
2023-03-29T04:20:32.842Z,77.97
2023-03-29T04:22:59.299Z,77.96
2023-03-29T04:25:26.004Z,78.15
2023-03-29T04:27:53.100Z,77.82
2023-03-29T04:30:19.460Z,77.80
2023-03-29T04:32:46.306Z,77.93
2023-03-29T04:35:12.996Z,77.89
2023-03-29T04:37:42.290Z,77.76
2023-03-29T04:40:09.933Z,77.81
2023-03-29T04:42:37.606Z,77.98
2023-03-29T04:45:06.959Z,77.81
2023-03-29T04:47:36.260Z,77.71
2023-03-29T04:50:03.184Z,77.78
2023-03-29T04:52:32.987Z,77.61
2023-03-29T04:55:04.084Z,77.67
2023-03-29T04:57:30.815Z,77.61
2023-03-29T04:59:57.370Z,77.57
2023-03-29T05:02:24.180Z,77.86
2023-03-29T05:04:51.124Z,77.84
2023-03-29T05:07:18.224Z,77.73
2023-03-29T05:09:45.709Z,77.79
2023-03-29T05:12:12.120Z,77.78
2023-03-29T05:14:38.520Z,77.99
2023-03-29T05:17:05.213Z,77.93
2023-03-29T05:19:32.140Z,77.81
2023-03-29T05:21:59.116Z,77.84
2023-03-29T05:24:25.763Z,78.03
2023-03-29T05:26:52.413Z,77.86
2023-03-29T05:29:19.188Z,77.96
2023-03-29T05:31:46.854Z,77.71
2023-03-29T05:34:13.520Z,77.87
2023-03-29T05:36:40.096Z,77.92
2023-03-29T05:39:06.874Z,77.75
2023-03-29T05:41:34.525Z,77.85
2023-03-29T05:44:01.024Z,77.81
2023-03-29T05:46:27.772Z,77.61
2023-03-29T05:48:54.338Z,77.70
2023-03-29T05:51:24.143Z,78.05
2023-03-29T05:53:51.528Z,77.90
2023-03-29T05:56:18.993Z,78.32
2023-03-29T05:59:06.512Z,77.99
2023-03-29T06:01:32.878Z,77.94
2023-03-29T06:03:59.524Z,78.01
2023-03-29T06:06:26.400Z,77.96
2023-03-29T06:08:52.842Z,78.15
2023-03-29T06:11:19.477Z,78.04
2023-03-29T06:13:45.837Z,78.07
2023-03-29T06:16:13.476Z,78.31
2023-03-29T06:18:41.024Z,78.07
2023-03-29T06:21:09.200Z,78.04
2023-03-29T06:23:36.338Z,78.10
2023-03-29T06:26:03.579Z,78.04
2023-03-29T06:28:30.006Z,78.04
2023-03-29T06:30:56.843Z,78.33
2023-03-29T06:33:25.151Z,78.04
2023-03-29T06:35:51.618Z,78.04
2023-03-29T06:38:19.419Z,78.42
2023-03-29T06:40:46.309Z,78.51
2023-03-29T06:43:13.009Z,78.19
2023-03-29T06:45:40.255Z,78.58
2023-03-29T06:48:10.026Z,78.40
2023-03-29T06:50:37.139Z,78.67
2023-03-29T06:53:04.401Z,78.75
2023-03-29T06:55:31.674Z,79.20
2023-03-29T06:58:00.249Z,78.99
2023-03-29T07:00:28.397Z,79.43
2023-03-29T07:02:57.863Z,79.80
2023-03-29T07:05:27.239Z,80.38
2023-03-29T07:07:59.958Z,80.62
2023-03-29T07:10:32.864Z,80.74
2023-03-29T07:13:03.089Z,80.89
2023-03-29T07:15:29.882Z,81.42
2023-03-29T07:17:57.441Z,81.36
2023-03-29T07:20:24.939Z,81.56
2023-03-29T07:22:51.764Z,81.39
2023-03-29T07:25:18.827Z,81.53
2023-03-29T07:27:46.317Z,81.65
2023-03-29T07:30:16.450Z,81.49
2023-03-29T07:32:44.825Z,81.50
2023-03-29T07:35:12.934Z,81.55
2023-03-29T07:37:40.267Z,81.25
2023-03-29T07:40:11.278Z,81.23
2023-03-29T07:42:38.555Z,81.65
2023-03-29T07:45:06.365Z,81.31
2023-03-29T07:47:33.110Z,81.31
2023-03-29T07:49:59.741Z,81.08
2023-03-29T07:52:28.586Z,81.25
2023-03-29T07:54:55.680Z,81.38
2023-03-29T07:57:24.177Z,81.46
2023-03-29T07:59:50.711Z,81.32
2023-03-29T08:02:17.026Z,81.26
2023-03-29T08:04:43.473Z,81.14
2023-03-29T08:07:09.949Z,81.65
2023-03-29T08:09:37.231Z,81.46
2023-03-29T08:12:04.366Z,81.23
2023-03-29T08:14:31.232Z,81.47
2023-03-29T08:16:57.789Z,81.40
2023-03-29T08:19:24.414Z,81.68
2023-03-29T08:21:51.652Z,81.14
2023-03-29T08:24:20.417Z,81.12
2023-03-29T08:26:48.794Z,81.29
2023-03-29T08:29:15.348Z,81.23
2023-03-29T08:31:41.950Z,81.24
2023-03-29T08:34:08.367Z,81.78
2023-03-29T08:36:34.797Z,82.22
2023-03-29T08:39:03.318Z,82.02
2023-03-29T08:41:52.251Z,81.78
2023-03-29T08:44:37.894Z,81.70
2023-03-29T08:47:04.318Z,81.69
2023-03-29T08:49:31.793Z,82.07
2023-03-29T08:52:01.203Z,82.16
2023-03-29T08:54:40.865Z,81.94
2023-03-29T08:57:16.888Z,82.38
2023-03-29T08:59:52.612Z,82.45
2023-03-29T09:02:24.401Z,82.38
2023-03-29T09:04:52.948Z,82.66
2023-03-29T09:07:19.965Z,82.47
2023-03-29T09:09:46.412Z,82.68
2023-03-29T09:12:49.709Z,82.29
2023-03-29T09:15:21.882Z,82.36
2023-03-29T09:18:14.934Z,82.41
2023-03-29T09:20:47.586Z,82.64
2023-03-29T09:23:23.423Z,82.69
2023-03-29T09:26:02.150Z,82.78
2023-03-29T09:28:37.013Z,82.56
2023-03-29T09:31:14.457Z,83.00
2023-03-29T09:33:47.649Z,83.23
2023-03-29T09:36:32.546Z,83.22
2023-03-29T09:38:59.062Z,83.26
2023-03-29T09:42:04.228Z,83.33
2023-03-29T09:44:37.310Z,83.37
2023-03-29T09:47:12.543Z,83.34
2023-03-29T09:49:44.099Z,83.34
2023-03-29T09:52:14.922Z,83.51
2023-03-29T09:54:41.298Z,83.95
2023-03-29T09:57:13.680Z,83.64
2023-03-29T09:59:40.483Z,83.66
2023-03-29T10:02:13.068Z,83.86
2023-03-29T10:04:42.063Z,84.00
2023-03-29T10:07:15.940Z,83.94
2023-03-29T10:09:44.747Z,83.66
2023-03-29T10:12:12.518Z,83.82
2023-03-29T10:14:48.171Z,84.23
2023-03-29T10:17:25.960Z,84.24
2023-03-29T10:19:57.233Z,84.23
2023-03-29T10:22:31.785Z,84.01
2023-03-29T10:24:58.482Z,84.03
2023-03-29T10:27:27.920Z,84.13
2023-03-29T10:29:55.367Z,84.29
2023-03-29T10:32:21.704Z,83.96
2023-03-29T10:34:49.659Z,84.10
2023-03-29T10:37:21.069Z,84.15
2023-03-29T10:39:48.908Z,84.27
2023-03-29T10:42:18.904Z,84.43
2023-03-29T10:44:58.185Z,84.01
2023-03-29T10:47:25.884Z,84.53
2023-03-29T10:49:58.641Z,84.75
2023-03-29T10:52:25.705Z,84.63
2023-03-29T10:54:54.779Z,85.00
2023-03-29T10:57:29.997Z,85.38
2023-03-29T11:00:11.099Z,85.52
2023-03-29T11:02:43.506Z,85.92
2023-03-29T11:05:22.549Z,86.36
2023-03-29T11:08:26.416Z,86.65
2023-03-29T11:11:24.191Z,86.23
2023-03-29T11:14:11.451Z,86.98
2023-03-29T11:16:50.067Z,87.18
2023-03-29T11:19:49.844Z,87.19
2023-03-29T11:22:22.811Z,87.54
2023-03-29T11:25:04.081Z,87.92
2023-03-29T11:28:13.913Z,87.67
2023-03-29T11:31:13.751Z,88.09
2023-03-29T11:33:58.852Z,88.35
2023-03-29T11:36:44.463Z,88.11
2023-03-29T11:39:28.194Z,88.59
2023-03-29T11:42:03.379Z,88.38
2023-03-29T11:44:31.462Z,88.60
2023-03-29T11:47:06.141Z,88.03
2023-03-29T11:49:42.315Z,87.96
2023-03-29T11:52:26.693Z,88.04
2023-03-29T11:55:08.177Z,87.63
2023-03-29T11:57:38.549Z,87.89
2023-03-29T12:00:27.433Z,87.41
2023-03-29T12:03:10.024Z,87.52
2023-03-29T12:05:48.632Z,87.19
2023-03-29T12:08:38.235Z,87.50
2023-03-29T12:11:11.920Z,87.10
2023-03-29T12:13:49.461Z,87.03
2023-03-29T12:16:26.526Z,87.05
2023-03-29T12:18:57.205Z,86.95
2023-03-29T12:21:27.875Z,86.73
2023-03-29T12:23:54.370Z,86.87
2023-03-29T12:26:34.887Z,86.70
2023-03-29T12:29:07.265Z,86.88
2023-03-29T12:31:43.034Z,86.52
2023-03-29T12:34:29.623Z,86.46
2023-03-29T12:37:08.257Z,86.46
2023-03-29T12:39:37.038Z,86.70
2023-03-29T12:42:12.599Z,86.59
2023-03-29T12:44:41.082Z,86.83
2023-03-29T12:47:19.021Z,86.87
2023-03-29T12:49:46.897Z,87.05
2023-03-29T12:52:31.627Z,87.22
2023-03-29T12:55:01.628Z,86.90
2023-03-29T12:57:40.872Z,87.08
2023-03-29T13:00:23.625Z,87.44
2023-03-29T13:03:28.754Z,87.44
2023-03-29T13:06:05.280Z,87.28
2023-03-29T13:08:43.812Z,87.37
2023-03-29T13:11:29.796Z,87.21
2023-03-29T13:13:57.316Z,87.13
2023-03-29T13:16:50.038Z,87.28
2023-03-29T13:19:27.759Z,87.27
2023-03-29T13:21:59.861Z,87.38
2023-03-29T13:24:48.110Z,87.46
2023-03-29T13:27:31.781Z,87.43
2023-03-29T13:30:51.581Z,87.23
2023-03-29T13:33:49.755Z,87.25
2023-03-29T13:36:34.267Z,87.22
2023-03-29T13:39:05.374Z,87.21
2023-03-29T13:41:41.024Z,87.16
2023-03-29T13:44:49.028Z,87.20
2023-03-29T13:47:37.804Z,86.84
2023-03-29T13:50:12.368Z,86.87
2023-03-29T13:52:51.480Z,86.83
2023-03-29T13:55:24.158Z,86.87
2023-03-29T13:58:00.383Z,86.75
2023-03-29T14:00:40.003Z,86.58
2023-03-29T14:03:12.689Z,86.02
2023-03-29T14:05:52.114Z,86.08
2023-03-29T14:08:22.137Z,85.93
2023-03-29T14:10:49.334Z,86.18
2023-03-29T14:13:19.290Z,86.19
2023-03-29T14:15:50.585Z,86.40
2023-03-29T14:18:21.133Z,86.52
2023-03-29T14:20:50.618Z,86.65
2023-03-29T14:23:23.623Z,86.79
2023-03-29T14:25:50.420Z,86.71
2023-03-29T14:28:26.180Z,86.62
2023-03-29T14:30:53.659Z,86.55
2023-03-29T14:33:34.323Z,86.48
2023-03-29T14:36:06.924Z,86.92
2023-03-29T14:38:37.147Z,86.84
2023-03-29T14:41:03.730Z,86.76
2023-03-29T14:43:32.074Z,86.74
2023-03-29T14:46:01.296Z,86.52
2023-03-29T14:48:28.565Z,86.43
2023-03-29T14:50:55.139Z,86.28
2023-03-29T14:53:23.519Z,86.37
2023-03-29T14:55:52.742Z,86.36
2023-03-29T14:58:27.358Z,86.08
2023-03-29T15:00:54.222Z,85.93
2023-03-29T15:03:27.944Z,85.84
2023-03-29T15:06:01.646Z,85.61
2023-03-29T15:08:33.953Z,85.57
2023-03-29T15:11:01.047Z,85.59
2023-03-29T15:13:28.297Z,85.32
2023-03-29T15:16:00.691Z,85.42
2023-03-29T15:18:32.501Z,85.07
2023-03-29T15:20:59.584Z,84.91
2023-03-29T15:23:26.620Z,84.98
2023-03-29T15:25:58.879Z,84.93
2023-03-29T15:28:34.306Z,84.76
2023-03-29T15:31:11.892Z,84.95
2023-03-29T15:33:40.949Z,84.66
2023-03-29T15:36:12.969Z,84.59
2023-03-29T15:38:44.473Z,84.19
2023-03-29T15:41:14.733Z,84.14
2023-03-29T15:43:41.623Z,83.87
2023-03-29T15:46:10.414Z,83.62
2023-03-29T15:48:37.368Z,83.60
2023-03-29T15:51:06.529Z,83.40
2023-03-29T15:53:33.560Z,82.85
2023-03-29T15:56:01.998Z,82.66
2023-03-29T15:58:31.655Z,82.69
2023-03-29T16:01:12.310Z,82.61
2023-03-29T16:03:39.972Z,82.60
2023-03-29T16:06:09.894Z,82.40
2023-03-29T16:08:36.507Z,82.62
2023-03-29T16:11:05.009Z,82.45
2023-03-29T16:13:31.349Z,82.60
2023-03-29T16:15:57.879Z,82.33
2023-03-29T16:18:24.317Z,82.49
2023-03-29T16:20:50.739Z,82.66
2023-03-29T16:23:17.169Z,82.65
2023-03-29T16:25:43.584Z,82.66
2023-03-29T16:28:10.144Z,82.56
2023-03-29T16:30:38.355Z,82.64
2023-03-29T16:33:08.579Z,82.82
2023-03-29T16:35:39.828Z,82.82
2023-03-29T16:38:08.007Z,82.82
2023-03-29T16:40:35.107Z,82.83
2023-03-29T16:43:02.651Z,82.85
2023-03-29T16:45:29.079Z,82.93
2023-03-29T16:47:55.989Z,83.04
2023-03-29T16:50:22.645Z,83.31
2023-03-29T16:52:51.326Z,83.35
2023-03-29T16:55:18.896Z,83.27
2023-03-29T16:57:46.940Z,83.52
2023-03-29T17:00:16.062Z,83.46
2023-03-29T17:02:49.710Z,83.70
2023-03-29T17:05:17.508Z,83.75
2023-03-29T17:07:44.460Z,83.83
2023-03-29T17:10:12.224Z,83.85
2023-03-29T17:12:39.171Z,84.08
2023-03-29T17:15:07.575Z,84.01
2023-03-29T17:17:35.248Z,84.12
2023-03-29T17:20:01.719Z,84.33
2023-03-29T17:22:28.098Z,84.49
2023-03-29T17:24:54.485Z,84.52
2023-03-29T17:27:21.092Z,84.56
2023-03-29T17:29:47.530Z,84.79
2023-03-29T17:32:14.299Z,84.86
2023-03-29T17:34:40.811Z,84.71
2023-03-29T17:37:07.632Z,85.04
2023-03-29T17:39:37.282Z,84.84
2023-03-29T17:42:05.209Z,85.06
2023-03-29T17:44:33.140Z,85.20
2023-03-29T17:47:00.895Z,84.93
2023-03-29T17:49:27.601Z,84.89
2023-03-29T17:51:54.036Z,84.78
2023-03-29T17:54:20.501Z,84.81
2023-03-29T17:56:46.943Z,84.87
2023-03-29T17:59:13.422Z,84.87
2023-03-29T18:01:40.103Z,84.83
2023-03-29T18:04:06.710Z,84.80
2023-03-29T18:06:33.282Z,84.91
2023-03-29T18:09:01.465Z,84.78
2023-03-29T18:11:28.276Z,85.01
2023-03-29T18:13:57.786Z,84.84
2023-03-29T18:16:24.392Z,84.84
2023-03-29T18:18:51.422Z,84.88
2023-03-29T18:21:18.166Z,84.82
2023-03-29T18:23:47.023Z,84.76
2023-03-29T18:26:15.078Z,84.85
2023-03-29T18:28:41.924Z,84.74
2023-03-29T18:31:08.389Z,84.93
2023-03-29T18:33:37.782Z,84.83
2023-03-29T18:36:10.801Z,84.89
2023-03-29T18:38:40.413Z,84.85
2023-03-29T18:41:08.510Z,84.91
2023-03-29T18:43:35.914Z,84.96
2023-03-29T18:46:03.134Z,84.96
2023-03-29T18:48:29.853Z,84.92
2023-03-29T18:50:57.203Z,84.79
2023-03-29T18:53:23.888Z,84.83
2023-03-29T18:55:50.359Z,84.85
2023-03-29T18:58:17.722Z,84.94
2023-03-29T19:00:44.418Z,85.02
2023-03-29T19:03:10.984Z,84.93
2023-03-29T19:05:39.110Z,84.95
2023-03-29T19:08:06.995Z,84.95
2023-03-29T19:10:38.371Z,85.01
2023-03-29T19:13:05.098Z,84.84
2023-03-29T19:15:33.812Z,84.91
2023-03-29T19:18:00.405Z,85.07
2023-03-29T19:20:27.335Z,85.17
2023-03-29T19:22:53.756Z,85.19
2023-03-29T19:25:20.634Z,85.14
2023-03-29T19:27:47.692Z,85.25
2023-03-29T19:30:14.609Z,85.32
2023-03-29T19:32:41.059Z,85.33
2023-03-29T19:35:09.502Z,85.52
2023-03-29T19:37:36.062Z,85.54
2023-03-29T19:40:02.679Z,85.65
2023-03-29T19:42:29.100Z,85.79
2023-03-29T19:44:55.624Z,85.73
2023-03-29T19:47:22.027Z,85.90
2023-03-29T19:49:48.469Z,86.00
2023-03-29T19:52:14.844Z,86.12
2023-03-29T19:54:42.416Z,86.16
2023-03-29T19:57:09.206Z,86.66
2023-03-29T19:59:37.707Z,86.63
2023-03-29T20:02:04.612Z,86.65
2023-03-29T20:04:33.127Z,86.74
2023-03-29T20:06:59.827Z,86.91
2023-03-29T20:09:26.260Z,87.09
2023-03-29T20:11:52.598Z,87.01
2023-03-29T20:14:18.980Z,87.07
2023-03-29T20:16:46.253Z,87.40
2023-03-29T20:19:14.039Z,87.21
2023-03-29T20:21:40.678Z,87.27
2023-03-29T20:24:08.551Z,87.40
2023-03-29T20:26:35.574Z,87.58
2023-03-29T20:29:02.563Z,87.80
2023-03-29T20:31:29.949Z,87.64
2023-03-29T20:33:57.588Z,87.61
2023-03-29T20:36:24.569Z,87.75
2023-03-29T20:38:51.379Z,87.77
2023-03-29T20:41:19.671Z,87.87
2023-03-29T20:43:46.226Z,88.05
2023-03-29T20:46:18.256Z,88.28
2023-03-29T20:48:54.046Z,88.16
2023-03-29T20:51:21.812Z,88.32
2023-03-29T20:53:48.565Z,88.41
2023-03-29T20:56:15.024Z,88.40
2023-03-29T20:58:42.107Z,88.61
2023-03-29T21:01:12.167Z,88.75
2023-03-29T21:03:38.829Z,88.73
2023-03-29T21:06:05.762Z,89.02
2023-03-29T21:08:32.190Z,89.00
2023-03-29T21:10:58.636Z,88.91
2023-03-29T21:13:25.104Z,88.80
2023-03-29T21:15:52.078Z,89.03
2023-03-29T21:18:18.547Z,89.06
2023-03-29T21:20:44.933Z,89.16
2023-03-29T21:23:11.431Z,89.10
2023-03-29T21:25:37.968Z,89.19
2023-03-29T21:28:04.399Z,89.05
2023-03-29T21:30:32.095Z,88.92
2023-03-29T21:32:58.765Z,88.91
2023-03-29T21:35:25.294Z,88.74
2023-03-29T21:37:52.635Z,88.82
2023-03-29T21:40:19.128Z,88.80
2023-03-29T21:42:45.701Z,88.68
2023-03-29T21:45:12.070Z,88.80
2023-03-29T21:47:38.475Z,88.77
2023-03-29T21:50:05.479Z,88.64
2023-03-29T21:52:31.851Z,88.52
2023-03-29T21:54:58.201Z,88.64
2023-03-29T21:57:24.704Z,88.49
2023-03-29T21:59:51.155Z,88.56
2023-03-29T22:02:17.621Z,88.58
2023-03-29T22:04:44.131Z,88.42
2023-03-29T22:07:10.596Z,88.27
2023-03-29T22:09:37.331Z,88.30
2023-03-29T22:12:04.692Z,88.15
2023-03-29T22:14:37.350Z,88.28
2023-03-29T22:17:06.155Z,88.06
2023-03-29T22:19:34.477Z,88.17
2023-03-29T22:22:01.311Z,88.02
2023-03-29T22:24:28.990Z,88.03
2023-03-29T22:26:55.617Z,87.83
2023-03-29T22:29:22.049Z,87.63
2023-03-29T22:31:48.554Z,87.76
2023-03-29T22:34:15.371Z,87.59
2023-03-29T22:36:41.813Z,87.38
2023-03-29T22:39:08.188Z,87.40
2023-03-29T22:41:34.567Z,87.29
2023-03-29T22:44:01.133Z,87.34
2023-03-29T22:46:27.953Z,87.22
2023-03-29T22:48:54.798Z,86.88
2023-03-29T22:51:21.587Z,86.71
2023-03-29T22:53:48.067Z,86.63
2023-03-29T22:56:15.851Z,86.49
2023-03-29T22:58:42.505Z,86.28
2023-03-29T23:01:09.486Z,86.19
2023-03-29T23:03:36.759Z,86.05
2023-03-29T23:06:03.471Z,85.76
2023-03-29T23:08:31.997Z,85.53
2023-03-29T23:10:58.894Z,85.38
2023-03-29T23:13:29.278Z,85.25
2023-03-29T23:15:58.957Z,85.19
2023-03-29T23:18:26.762Z,84.96
2023-03-29T23:20:55.451Z,84.72
2023-03-29T23:23:22.834Z,84.67
2023-03-29T23:25:51.627Z,84.63
2023-03-29T23:28:21.747Z,84.57
2023-03-29T23:31:03.213Z,84.35
2023-03-29T23:33:34.979Z,84.36
2023-03-29T23:36:03.843Z,84.10
2023-03-29T23:38:31.896Z,84.04
2023-03-29T23:41:00.219Z,83.99
2023-03-29T23:43:32.453Z,83.67
2023-03-29T23:46:01.596Z,83.46
2023-03-29T23:48:28.315Z,83.64
2023-03-29T23:50:57.309Z,83.41
2023-03-29T23:53:25.412Z,83.08
2023-03-29T23:55:52.074Z,82.86
2023-03-29T23:58:18.460Z,82.53
